createdAt,value
2022-11-19T00:03:58.705Z,64971.53
2022-11-19T00:09:04.319Z,64876.16
2022-11-19T00:14:19.753Z,64831.72
2022-11-19T00:19:25.836Z,64913.91
2022-11-19T00:24:30.489Z,64734.75
2022-11-19T00:29:34.997Z,64715.16
2022-11-19T00:34:40.921Z,64689.09
2022-11-19T00:39:45.293Z,64703.41
2022-11-19T00:44:49.773Z,64706.81
2022-11-19T00:49:55.928Z,64839.03
2022-11-19T00:55:00.408Z,64961.13
2022-11-19T01:00:05.795Z,64824.19
2022-11-19T01:05:11.913Z,64863.31
2022-11-19T01:10:17.204Z,64775.53
2022-11-19T01:15:21.923Z,64815.19
2022-11-19T01:20:28.025Z,64737.09
2022-11-19T01:25:32.499Z,64750.66
2022-11-19T01:30:37.018Z,64723.28
2022-11-19T01:35:45.671Z,64777.44
2022-11-19T01:40:50.293Z,64745.00
2022-11-19T01:45:54.716Z,64837.97
2022-11-19T01:51:03.987Z,64868.19
2022-11-19T01:56:10.246Z,65035.22
2022-11-19T02:01:16.648Z,65166.03
2022-11-19T02:06:22.749Z,65067.72
2022-11-19T02:11:59.686Z,65112.13
2022-11-19T02:17:11.191Z,65090.03
2022-11-19T02:22:40.496Z,64833.09
2022-11-19T02:28:08.754Z,64830.78
2022-11-19T02:33:21.082Z,64814.00
2022-11-19T02:38:32.479Z,64862.47
2022-11-19T02:43:40.254Z,65108.09
2022-11-19T02:48:51.412Z,65075.16
2022-11-19T02:53:56.032Z,65029.50
2022-11-19T02:59:20.430Z,65123.59
2022-11-19T03:04:32.304Z,65170.78
2022-11-19T03:09:41.795Z,65154.34
2022-11-19T03:15:30.187Z,64903.06
2022-11-19T03:20:40.847Z,64950.16
2022-11-19T03:25:50.889Z,64879.75
2022-11-19T03:30:58.372Z,64903.72
2022-11-19T03:36:10.237Z,64815.94
2022-11-19T03:41:21.387Z,64894.16
2022-11-19T03:46:36.694Z,64832.25
2022-11-19T03:52:06.331Z,64941.91
2022-11-19T03:57:38.044Z,64871.69
2022-11-19T04:03:08.872Z,64984.06
2022-11-19T04:08:31.210Z,64875.09
2022-11-19T04:13:58.286Z,64975.03
2022-11-19T04:19:18.740Z,65052.31
2022-11-19T04:24:37.793Z,64940.22
2022-11-19T04:30:02.769Z,65071.44
2022-11-19T04:35:40.633Z,65000.91
2022-11-19T04:41:54.221Z,64966.84
2022-11-19T04:48:03.368Z,65031.09
2022-11-19T04:53:39.844Z,64990.19
2022-11-19T04:59:20.887Z,65050.19
2022-11-19T05:10:10.430Z,64965.25
2022-11-19T05:15:25.435Z,64925.59
2022-11-19T05:20:30.932Z,64875.31
2022-11-19T05:25:37.742Z,64841.16
2022-11-19T05:30:43.971Z,64829.47
2022-11-19T05:35:50.582Z,64895.22
2022-11-19T05:40:56.571Z,64913.25
2022-11-19T05:46:03.240Z,65018.75
2022-11-19T05:51:11.985Z,64922.91
2022-11-19T05:56:17.511Z,64833.19
2022-11-19T06:01:28.351Z,64814.88
2022-11-19T06:06:33.076Z,64777.13
2022-11-19T06:11:50.588Z,64905.19
2022-11-19T06:16:59.036Z,65063.56
2022-11-19T06:22:04.040Z,65101.59
2022-11-19T06:27:08.681Z,65181.97
2022-11-19T06:32:14.689Z,65039.69
2022-11-19T06:37:21.356Z,65086.53
2022-11-19T06:42:38.025Z,65136.88
2022-11-19T06:47:48.970Z,65111.28
2022-11-19T06:52:54.747Z,65237.16
2022-11-19T06:58:04.230Z,65139.44
2022-11-19T07:03:11.725Z,65198.97
2022-11-19T07:08:16.560Z,65150.06
2022-11-19T07:13:21.466Z,65265.34
2022-11-19T07:18:27.950Z,65069.31
2022-11-19T07:23:35.363Z,64943.50
2022-11-19T07:28:40.505Z,65189.84
2022-11-19T07:33:46.704Z,64912.19
2022-11-19T07:38:53.438Z,65035.75
2022-11-19T07:43:58.050Z,64903.72
2022-11-19T07:49:06.169Z,65114.56
2022-11-19T07:54:14.501Z,65064.53
2022-11-19T07:59:19.299Z,65051.25
2022-11-19T08:04:28.867Z,65007.72
2022-11-19T08:09:34.588Z,65019.59
2022-11-19T08:14:40.081Z,65054.66
2022-11-19T08:19:46.272Z,65074.09
2022-11-19T08:24:52.334Z,65189.41
2022-11-19T08:30:02.308Z,65283.34
2022-11-19T08:43:25.745Z,65273.44
2022-11-19T08:48:32.438Z,65106.94
2022-11-19T08:53:47.149Z,65218.13
2022-11-19T08:59:02.455Z,65032.78
2022-11-19T09:04:10.540Z,65167.50
2022-11-19T09:09:17.020Z,65162.84
2022-11-19T09:14:23.550Z,65044.25
2022-11-19T09:19:32.962Z,65210.47
2022-11-19T09:24:39.349Z,65267.16
2022-11-19T09:29:46.347Z,65234.28
2022-11-19T09:34:51.225Z,65164.53
2022-11-19T09:39:56.927Z,65393.41
2022-11-19T09:45:20.892Z,65408.66
2022-11-19T09:50:27.751Z,65426.78
2022-11-19T09:55:36.579Z,65278.34
2022-11-19T10:00:41.295Z,65432.22
2022-11-19T10:06:00.699Z,65363.94
2022-11-19T10:11:32.708Z,65131.59
2022-11-19T10:16:51.339Z,65168.69
2022-11-19T10:22:02.011Z,65312.81
2022-11-19T10:27:24.739Z,65141.16
2022-11-19T10:32:39.424Z,65135.81
2022-11-19T10:37:56.311Z,65253.34
2022-11-19T10:43:23.214Z,65159.00
2022-11-19T10:48:38.643Z,65062.41
2022-11-19T10:53:44.029Z,65101.94
2022-11-19T10:58:53.787Z,65100.00
2022-11-19T11:04:09.325Z,65029.06
2022-11-19T11:09:24.672Z,65115.63
2022-11-19T11:14:48.572Z,65219.41
2022-11-19T11:19:59.953Z,65221.31
2022-11-19T11:25:07.505Z,65185.38
2022-11-19T11:30:19.563Z,65274.50
2022-11-19T11:35:35.756Z,65216.63
2022-11-19T11:40:43.717Z,65242.19
2022-11-19T11:46:00.686Z,65205.47
2022-11-19T11:51:26.133Z,65346.88
2022-11-19T11:56:37.516Z,65404.41
2022-11-19T12:01:57.935Z,65309.63
2022-11-19T12:07:14.706Z,65289.50
2022-11-19T12:12:28.626Z,65377.75
2022-11-19T12:17:44.579Z,65288.88
2022-11-19T12:23:03.294Z,65204.94
2022-11-19T12:28:39.081Z,65229.91
2022-11-19T12:34:08.673Z,65252.16
2022-11-19T12:39:27.602Z,65297.94
2022-11-19T12:44:43.579Z,65369.78
2022-11-19T12:50:04.400Z,65327.84
2022-11-19T12:55:19.199Z,65231.53
2022-11-19T13:22:00.133Z,65226.63
2022-11-19T13:27:07.849Z,65371.91
2022-11-19T13:32:20.616Z,65401.94
2022-11-19T13:37:40.839Z,65459.91
2022-11-19T13:43:30.649Z,65505.31
2022-11-19T13:48:31.750Z,65664.72
2022-11-19T13:53:44.300Z,65678.69
2022-11-19T13:58:55.128Z,65553.22
2022-11-19T14:04:18.029Z,65560.78
2022-11-19T14:09:35.052Z,65419.97
2022-11-19T14:15:30.592Z,65198.97
2022-11-19T14:20:56.381Z,65342.19
2022-11-19T14:26:23.499Z,65290.69
2022-11-19T14:31:33.730Z,65246.00
2022-11-19T14:36:59.478Z,65307.19
2022-11-19T14:42:16.145Z,65375.09
2022-11-19T14:47:38.668Z,65377.22
2022-11-19T14:52:53.649Z,65311.22
2022-11-19T14:58:03.277Z,65345.50
2022-11-19T15:03:13.985Z,65348.25
2022-11-19T15:08:49.083Z,65261.97
2022-11-19T15:14:25.822Z,65194.22
2022-11-19T15:19:43.313Z,65230.56
2022-11-19T15:25:04.100Z,65220.88
2022-11-19T15:30:18.221Z,65191.22
2022-11-19T15:36:08.426Z,65198.03
2022-11-19T15:41:17.249Z,65198.03
2022-11-19T15:46:36.652Z,65186.31
2022-11-19T15:51:59.824Z,65190.03
2022-11-19T15:57:56.765Z,65194.41
2022-11-19T16:03:06.364Z,65231.94
2022-11-19T16:08:17.689Z,65204.94
2022-11-19T16:13:42.250Z,65206.63
2022-11-19T16:18:56.724Z,65219.81
2022-11-19T16:24:21.789Z,65045.94
2022-11-19T16:29:28.394Z,65050.50
2022-11-19T16:34:33.875Z,65125.72
2022-11-19T16:39:49.935Z,65147.94
2022-11-19T16:45:00.348Z,65147.84
2022-11-19T16:50:31.935Z,65079.94
2022-11-19T16:55:53.826Z,65047.66
2022-11-19T17:01:01.938Z,65082.69
2022-11-19T17:06:10.228Z,65086.41
2022-11-19T17:11:39.528Z,65091.50
2022-11-19T17:16:48.330Z,65150.06
2022-11-19T17:21:57.856Z,65112.56
2022-11-19T17:27:05.800Z,65126.06
2022-11-19T17:32:12.241Z,65098.66
2022-11-19T17:37:17.107Z,65138.81
2022-11-19T17:42:40.211Z,65135.81
2022-11-19T17:47:45.320Z,65229.41
2022-11-19T17:52:53.373Z,65187.81
2022-11-19T17:58:04.186Z,65192.59
2022-11-19T18:03:13.224Z,65225.78
2022-11-19T18:08:19.736Z,65248.34
2022-11-19T18:13:28.991Z,65228.03
2022-11-19T18:18:33.296Z,65213.88
2022-11-19T18:23:37.675Z,65176.31
2022-11-19T18:28:46.401Z,65199.59
2022-11-19T18:33:53.292Z,65182.50
2022-11-19T18:38:57.465Z,65156.66
2022-11-19T18:44:20.388Z,65196.97
2022-11-19T18:49:26.908Z,65160.81
2022-11-19T18:54:31.114Z,65182.06
2022-11-19T18:59:36.654Z,65198.97
2022-11-19T19:04:47.132Z,65172.28
2022-11-19T19:09:55.019Z,65174.72
2022-11-19T19:15:03.517Z,65132.13
2022-11-19T19:20:09.087Z,65151.25
2022-11-19T19:25:15.683Z,65147.94
2022-11-19T19:30:21.544Z,65138.06
2022-11-19T19:35:25.804Z,65154.88
2022-11-19T19:40:30.268Z,65179.41
2022-11-19T19:45:36.741Z,65152.31
2022-11-19T19:50:41.512Z,65145.41
2022-11-19T19:55:46.027Z,65172.59
2022-11-19T20:00:51.848Z,65010.91
2022-11-19T20:05:57.633Z,65037.25
2022-11-19T20:11:06.930Z,65114.38
2022-11-19T20:16:18.127Z,65118.19
2022-11-19T20:21:24.846Z,65100.13
2022-11-19T20:26:33.548Z,65105.44
2022-11-19T20:31:39.484Z,65110.44
2022-11-19T20:36:44.941Z,65059.44
2022-11-19T20:42:06.597Z,65157.50
2022-11-19T20:47:12.279Z,65000.50
2022-11-19T20:52:19.231Z,65060.94
2022-11-19T20:57:23.154Z,64949.13
2022-11-19T21:02:29.297Z,65023.13
2022-11-19T21:07:33.957Z,65037.03
2022-11-19T21:12:58.041Z,65105.44
2022-11-19T21:18:03.532Z,65127.44
2022-11-19T21:23:07.807Z,65144.75
2022-11-19T21:28:11.970Z,65101.28
2022-11-19T21:33:18.003Z,65093.13
2022-11-19T21:38:25.494Z,65160.28
2022-11-19T21:43:31.962Z,65102.34
2022-11-19T21:48:40.136Z,65097.16
2022-11-19T21:53:44.352Z,65158.16
2022-11-19T21:58:50.881Z,65108.19
2022-11-19T22:03:56.581Z,65133.81
2022-11-19T22:09:00.868Z,65169.63
2022-11-19T22:14:08.966Z,65181.75
2022-11-19T22:19:15.428Z,65231.84
2022-11-19T22:24:19.880Z,65185.69
2022-11-19T22:29:24.325Z,65279.84
2022-11-19T22:34:30.098Z,65252.06
2022-11-19T22:39:34.687Z,64948.81
2022-11-19T22:44:39.170Z,64961.97
2022-11-19T22:49:48.219Z,64875.09
2022-11-19T22:54:52.133Z,64947.63
2022-11-19T22:59:56.553Z,65011.34
2022-11-19T23:05:02.361Z,65018.31
2022-11-19T23:10:07.258Z,64934.91
2022-11-19T23:15:11.752Z,65004.53
2022-11-19T23:20:18.292Z,65069.00
2022-11-19T23:25:22.505Z,65108.09
2022-11-19T23:30:27.306Z,65102.25
2022-11-19T23:35:36.694Z,65094.91
2022-11-19T23:40:41.374Z,65090.78
2022-11-19T23:45:45.682Z,65089.50
2022-11-19T23:50:52.467Z,65121.50
2022-11-19T23:55:57.728Z,65143.06
